Time;durP1;ratioP1;P1;durP2;ratioP2;P2;SDS_P1;SDS_P2;PMS_P1;PMS_P2;Temp;Humidity;BMP_temperature;BMP_pressure;BME280_temperature;BME280_humidity;BME280_pressure;Samples;Min_cycle;Max_cycle;Signal;HPM_P1;HPM_P2
2022/11/16 00:00:28;;;;;;;43.50;25.27;;;12.10;99.90;;;;;;4979228;28;20246;-71
2022/11/16 00:02:54;;;;;;;44.47;23.53;;;12.10;99.90;;;;;;4980580;28;20567;-71
2022/11/16 00:05:21;;;;;;;47.30;25.53;;;12.10;99.90;;;;;;4979083;28;20221;-71
2022/11/16 00:07:53;;;;;;;41.80;24.23;;;12.10;99.90;;;;;;4982834;28;20310;-72
2022/11/16 00:10:20;;;;;;;46.27;24.70;;;12.10;99.90;;;;;;4960083;28;20531;-72
2022/11/16 00:12:47;;;;;;;45.27;24.57;;;12.10;99.90;;;;;;4976387;28;20290;-71
2022/11/16 00:15:14;;;;;;;44.50;24.47;;;12.10;99.90;;;;;;4971922;28;20621;-72
2022/11/16 00:17:40;;;;;;;45.43;24.37;;;12.10;99.90;;;;;;4977996;28;20300;-71
2022/11/16 00:20:08;;;;;;;49.50;25.00;;;12.10;99.90;;;;;;4980003;28;20231;-71
2022/11/16 00:22:34;;;;;;;46.10;25.43;;;12.10;99.90;;;;;;4980610;28;20752;-71
2022/11/16 00:25:01;;;;;;;44.63;24.07;;;12.10;99.90;;;;;;4979576;28;20298;-70
2022/11/16 00:27:28;;;;;;;46.87;24.47;;;12.10;99.90;;;;;;4975175;28;20208;-71
2022/11/16 00:29:55;;;;;;;43.97;24.13;;;12.20;99.90;;;;;;4980282;28;20199;-71
2022/11/16 00:32:22;;;;;;;47.63;23.93;;;12.20;99.90;;;;;;4962216;28;20242;-72
2022/11/16 00:34:49;;;;;;;50.37;25.27;;;12.20;99.90;;;;;;4978086;28;20206;-72
2022/11/16 00:37:15;;;;;;;48.77;24.80;;;12.20;99.90;;;;;;4978044;28;20776;-72
2022/11/16 00:39:42;;;;;;;51.03;25.47;;;12.20;99.90;;;;;;4957746;28;20343;-71
2022/11/16 00:42:09;;;;;;;48.90;25.80;;;12.20;99.90;;;;;;4979059;28;20218;-72
2022/11/16 00:44:36;;;;;;;49.47;24.77;;;12.20;99.90;;;;;;4980227;28;20219;-72
2022/11/16 00:47:02;;;;;;;51.10;26.40;;;12.20;99.90;;;;;;4979378;28;20358;-71
2022/11/16 00:49:29;;;;;;;49.60;25.87;;;12.20;99.90;;;;;;4978927;28;20213;-71
2022/11/16 00:51:56;;;;;;;57.17;26.23;;;12.20;99.90;;;;;;4975923;28;20236;-71
2022/11/16 00:54:23;;;;;;;56.43;25.87;;;12.20;99.90;;;;;;4979931;28;20211;-72
2022/11/16 00:56:49;;;;;;;50.40;25.10;;;12.20;99.90;;;;;;4980784;28;20226;-72
2022/11/16 00:59:16;;;;;;;50.30;25.40;;;12.20;99.90;;;;;;4974060;28;20222;-73
2022/11/16 01:01:43;;;;;;;51.63;26.50;;;12.20;99.90;;;;;;4979289;28;20333;-72
2022/11/16 01:04:10;;;;;;;54.63;25.73;;;12.20;99.90;;;;;;4976409;28;20700;-72
2022/11/16 01:06:36;;;;;;;57.30;26.37;;;12.20;99.90;;;;;;4979470;28;20657;-73
2022/11/16 01:09:03;;;;;;;54.27;26.57;;;12.20;99.90;;;;;;4979355;28;20199;-71
2022/11/16 01:14:15;;;;;;;53.13;27.50;;;12.20;99.90;;;;;;4974393;28;20241;-73
2022/11/16 01:16:42;;;;;;;51.50;28.13;;;12.20;99.90;;;;;;4980486;28;20211;-73
2022/11/16 01:19:09;;;;;;;55.17;27.83;;;12.20;99.90;;;;;;4976325;28;20728;-71
2022/11/16 01:21:36;;;;;;;53.20;27.47;;;12.20;99.90;;;;;;4979103;28;20317;-71
2022/11/16 01:24:02;;;;;;;53.77;27.47;;;12.20;99.90;;;;;;4961359;28;20199;-71
2022/11/16 01:26:29;;;;;;;57.93;28.67;;;12.20;99.90;;;;;;4972101;28;20221;-73
2022/11/16 01:28:57;;;;;;;55.17;29.37;;;12.20;99.90;;;;;;4978074;28;20298;-72
2022/11/16 01:31:24;;;;;;;58.10;27.93;;;12.30;99.90;;;;;;4976411;28;20208;-71
2022/11/16 01:33:51;;;;;;;58.77;28.90;;;12.20;99.90;;;;;;4977746;28;20267;-72
2022/11/16 01:36:18;;;;;;;62.33;29.17;;;12.20;99.90;;;;;;4977538;28;20302;-72
2022/11/16 01:38:45;;;;;;;56.20;27.60;;;12.30;99.90;;;;;;4979376;28;20715;-73
2022/11/16 01:41:23;;;;;;;54.07;26.53;;;12.20;99.90;;;;;;4980516;28;20321;-72
2022/11/16 01:43:56;;;;;;;53.17;26.30;;;12.30;99.90;;;;;;4979638;28;20771;-73
2022/11/16 01:46:24;;;;;;;51.10;26.33;;;12.20;99.90;;;;;;4982332;28;20219;-73
2022/11/16 01:48:58;;;;;;;56.50;26.27;;;12.30;99.90;;;;;;4981455;28;20216;-72
2022/11/16 01:51:25;;;;;;;56.43;27.30;;;12.30;99.90;;;;;;4982719;28;20285;-73
2022/11/16 01:53:52;;;;;;;56.93;27.00;;;12.10;99.90;;;;;;4963136;28;20644;-73
2022/11/16 01:56:20;;;;;;;58.63;27.07;;;12.20;99.90;;;;;;4982381;28;20207;-73
2022/11/16 01:58:48;;;;;;;56.97;27.80;;;12.20;99.90;;;;;;4980201;28;20295;-71
2022/11/16 02:01:15;;;;;;;56.10;27.33;;;12.20;99.90;;;;;;4981685;28;20239;-72
2022/11/16 02:03:41;;;;;;;45.00;24.53;;;12.20;99.90;;;;;;4982832;28;20195;-72
2022/11/16 02:06:11;;;;;;;50.63;25.23;;;12.20;99.90;;;;;;4980953;28;20227;-72
2022/11/16 02:11:57;;;;;;;54.47;26.53;;;12.20;99.90;;;;;;4980153;28;20216;-72
2022/11/16 02:14:48;;;;;;;50.30;26.00;;;12.20;99.90;;;;;;4977591;28;20684;-71
2022/11/16 02:17:24;;;;;;;47.67;26.13;;;12.20;99.90;;;;;;4981807;28;20715;-71
2022/11/16 02:20:29;;;;;;;48.27;26.53;;;12.10;99.90;;;;;;4981801;28;20290;-73
2022/11/16 02:23:14;;;;;;;50.93;26.23;;;12.20;99.90;;;;;;4982491;28;20242;-73
2022/11/16 02:26:02;;;;;;;48.80;27.00;;;12.20;99.90;;;;;;4978131;28;20854;-72
2022/11/16 02:28:59;;;;;;;56.40;26.83;;;12.10;99.90;;;;;;4981385;28;20242;-72
2022/11/16 02:31:35;;;;;;;57.10;26.87;;;12.20;99.90;;;;;;4976774;28;20690;-72
2022/11/16 02:34:08;;;;;;;49.87;25.57;;;12.10;99.90;;;;;;4980731;28;20648;-73
2022/11/16 02:36:38;;;;;;;51.63;26.27;;;12.10;99.90;;;;;;4980127;28;20224;-72
2022/11/16 02:39:11;;;;;;;50.47;26.27;;;12.10;99.90;;;;;;4982319;28;20211;-73
2022/11/16 02:41:41;;;;;;;52.53;26.43;;;12.10;99.90;;;;;;4979763;28;20231;-73
2022/11/16 02:44:23;;;;;;;55.17;27.10;;;12.20;99.90;;;;;;4976333;28;20218;-72
2022/11/16 02:46:55;;;;;;;50.97;26.40;;;12.10;99.90;;;;;;4959768;28;20736;-72
2022/11/16 02:49:24;;;;;;;46.80;25.30;;;12.20;99.90;;;;;;4981184;28;20210;-71
2022/11/16 02:51:53;;;;;;;52.93;26.53;;;12.20;99.90;;;;;;4979624;28;20235;-72
2022/11/16 02:54:23;;;;;;;54.83;26.53;;;12.20;99.90;;;;;;4978605;28;20294;-74
2022/11/16 02:57:02;;;;;;;51.23;26.33;;;12.20;99.90;;;;;;4975887;28;20334;-72
2022/11/16 02:59:46;;;;;;;47.47;24.27;;;12.20;99.90;;;;;;4979002;28;20297;-73
2022/11/16 03:02:18;;;;;;;55.73;27.13;;;12.20;99.90;;;;;;4961952;28;20617;-72
2022/11/16 03:05:01;;;;;;;55.00;25.63;;;12.20;99.90;;;;;;4981747;28;20286;-72
2022/11/16 03:07:33;;;;;;;49.23;25.87;;;12.20;99.90;;;;;;4978164;28;20227;-72
2022/11/16 03:10:01;;;;;;;59.13;27.27;;;12.20;99.90;;;;;;4954325;28;20207;-72
2022/11/16 03:12:33;;;;;;;63.70;27.20;;;12.20;99.90;;;;;;4980074;28;20215;-72
2022/11/16 03:15:03;;;;;;;51.17;26.10;;;12.20;99.90;;;;;;4973314;28;20302;-72
2022/11/16 03:17:37;;;;;;;53.03;26.13;;;12.20;99.90;;;;;;4980940;28;20267;-71
2022/11/16 03:20:13;;;;;;;59.47;27.20;;;12.20;99.90;;;;;;4976056;28;20208;-71
2022/11/16 03:22:40;;;;;;;56.00;26.87;;;12.20;99.90;;;;;;4977731;28;20246;-71
2022/11/16 03:25:10;;;;;;;54.97;26.33;;;12.20;99.90;;;;;;4981880;28;20212;-72
2022/11/16 03:28:12;;;;;;;53.17;26.63;;;12.20;99.90;;;;;;4973081;28;20628;-72
2022/11/16 03:30:48;;;;;;;53.87;25.93;;;12.20;99.90;;;;;;4980166;28;20647;-72
2022/11/16 03:33:29;;;;;;;50.07;26.03;;;12.20;99.90;;;;;;4976361;28;20268;-72
2022/11/16 03:36:11;;;;;;;51.43;25.87;;;12.20;99.90;;;;;;4974582;28;20215;-71
2022/11/16 03:38:44;;;;;;;54.53;26.40;;;12.20;99.90;;;;;;4976427;28;20211;-73
2022/11/16 03:41:14;;;;;;;54.47;27.23;;;12.20;99.90;;;;;;4960834;28;20674;-72
2022/11/16 03:43:42;;;;;;;53.67;25.47;;;12.20;99.90;;;;;;4963560;28;20211;-71
2022/11/16 03:46:09;;;;;;;57.90;26.30;;;12.20;99.90;;;;;;4978005;28;20217;-72
2022/11/16 03:48:38;;;;;;;53.27;25.70;;;12.20;99.90;;;;;;4975445;28;20219;-74
2022/11/16 03:51:07;;;;;;;51.90;25.47;;;12.20;99.90;;;;;;4979723;28;20290;-72
2022/11/16 03:53:34;;;;;;;53.47;25.83;;;12.10;99.90;;;;;;4975537;28;20290;-71
2022/11/16 03:56:01;;;;;;;58.53;28.03;;;12.10;99.90;;;;;;4979321;28;20571;-72
2022/11/16 03:58:28;;;;;;;61.33;28.43;;;12.20;99.90;;;;;;4980304;28;20295;-72
2022/11/16 04:00:55;;;;;;;58.33;26.27;;;12.10;99.90;;;;;;4967674;28;20282;-72
2022/11/16 04:03:22;;;;;;;60.40;28.33;;;12.10;99.90;;;;;;4977731;28;20231;-72
2022/11/16 04:25:23;;;;;;;62.40;27.97;;;12.20;99.90;;;;;;4978407;28;20628;-70
2022/11/16 04:38:53;;;;;;;68.70;30.43;;;12.20;99.90;;;;;;4978441;28;20207;-73
2022/11/16 04:44:05;;;;;;;74.53;29.50;;;12.20;99.90;;;;;;4974567;28;20258;-72
2022/11/16 04:49:17;;;;;;;61.53;27.17;;;12.20;99.90;;;;;;4978218;28;20201;-73
2022/11/16 04:51:44;;;;;;;58.17;24.17;;;12.20;99.90;;;;;;4977107;28;20263;-71
2022/11/16 04:54:11;;;;;;;55.40;24.13;;;12.20;99.90;;;;;;4976052;28;20277;-70
2022/11/16 04:56:38;;;;;;;49.90;23.40;;;12.20;99.90;;;;;;4978003;28;20215;-71
2022/11/16 04:59:04;;;;;;;52.70;22.27;;;12.20;99.90;;;;;;4978931;28;20221;-71
2022/11/16 05:04:16;;;;;;;52.53;20.63;;;12.20;99.90;;;;;;4977741;28;20219;-71
2022/11/16 05:06:43;;;;;;;41.00;20.27;;;12.20;99.90;;;;;;4959598;28;20220;-71
2022/11/16 05:09:10;;;;;;;33.23;18.03;;;12.20;99.90;;;;;;4977503;28;20208;-71
2022/11/16 05:11:37;;;;;;;32.10;17.10;;;12.20;99.90;;;;;;4979156;28;20218;-72
2022/11/16 05:14:04;;;;;;;31.90;17.17;;;12.20;99.90;;;;;;4979383;28;20719;-72
2022/11/16 05:16:32;;;;;;;31.83;17.13;;;12.20;99.90;;;;;;4976739;28;20622;-70
2022/11/16 05:21:44;;;;;;;26.93;15.23;;;12.10;99.90;;;;;;4973418;28;20643;-71
2022/11/16 05:26:56;;;;;;;25.30;14.03;;;12.00;99.90;;;;;;4975182;28;20200;-71
2022/11/16 05:29:23;;;;;;;24.47;14.17;;;12.00;99.90;;;;;;4973747;28;20212;-72
2022/11/16 05:31:50;;;;;;;27.67;14.53;;;12.00;99.90;;;;;;4980306;28;20315;-70
2022/11/16 05:34:17;;;;;;;29.50;14.63;;;12.00;99.90;;;;;;4972654;28;20207;-71
2022/11/16 05:36:43;;;;;;;29.70;14.67;;;12.00;99.90;;;;;;4960375;28;20215;-70
2022/11/16 05:39:10;;;;;;;29.67;14.63;;;11.90;99.90;;;;;;4979779;28;20217;-70
2022/11/16 05:41:37;;;;;;;27.33;13.97;;;11.90;99.90;;;;;;4976337;28;20231;-71
2022/11/16 05:44:04;;;;;;;26.67;14.33;;;11.90;99.90;;;;;;4978587;28;20258;-71
2022/11/16 05:46:31;;;;;;;25.47;13.70;;;11.80;99.90;;;;;;4976489;28;20339;-71
2022/11/16 05:48:58;;;;;;;25.03;13.23;;;11.80;99.90;;;;;;4962783;28;20242;-71
2022/11/16 05:51:25;;;;;;;22.03;12.17;;;11.80;99.90;;;;;;4974853;28;20247;-71
2022/11/16 05:53:51;;;;;;;23.40;12.20;;;11.80;99.90;;;;;;4977499;28;20262;-70
2022/11/16 05:56:18;;;;;;;23.80;13.13;;;11.70;99.90;;;;;;4971265;28;20204;-71
2022/11/16 05:58:45;;;;;;;26.67;13.03;;;11.70;99.90;;;;;;4955361;28;20208;-71
2022/11/16 06:01:12;;;;;;;22.10;11.80;;;11.70;99.90;;;;;;4979324;28;20315;-71
2022/11/16 06:03:39;;;;;;;19.50;10.60;;;11.70;99.90;;;;;;4976572;28;20241;-71
2022/11/16 06:06:06;;;;;;;21.37;11.37;;;11.70;99.90;;;;;;4978454;28;20262;-69
2022/11/16 06:08:32;;;;;;;19.03;10.63;;;11.70;99.90;;;;;;4945391;28;20786;-69
2022/11/16 06:11:01;;;;;;;17.97;10.60;;;11.60;99.90;;;;;;4975204;28;20239;-70
2022/11/16 06:13:29;;;;;;;22.60;10.63;;;11.60;99.90;;;;;;4970655;28;20304;-71
2022/11/16 06:15:56;;;;;;;21.67;9.67;;;11.60;99.90;;;;;;4977881;28;20207;-71
2022/11/16 06:18:23;;;;;;;19.30;9.80;;;11.50;99.90;;;;;;4979323;28;20219;-71
2022/11/16 06:20:50;;;;;;;19.17;9.70;;;11.60;99.90;;;;;;4977284;28;20223;-71
2022/11/16 06:23:17;;;;;;;20.90;8.57;;;11.60;99.90;;;;;;4974184;28;20323;-71
2022/11/16 06:25:44;;;;;;;20.13;9.63;;;11.50;99.90;;;;;;4976787;28;20299;-70
2022/11/16 06:28:11;;;;;;;20.53;9.97;;;11.50;99.90;;;;;;4979512;28;20227;-72
2022/11/16 06:30:39;;;;;;;19.50;9.23;;;11.50;99.90;;;;;;4982210;28;20210;-70
2022/11/16 06:33:07;;;;;;;22.57;9.73;;;11.50;99.90;;;;;;4963598;28;20203;-70
2022/11/16 06:35:34;;;;;;;16.57;7.50;;;11.50;99.90;;;;;;4980406;28;20203;-71
2022/11/16 06:38:00;;;;;;;14.87;6.80;;;11.50;99.90;;;;;;4979131;28;20632;-72
2022/11/16 06:40:27;;;;;;;13.67;7.20;;;11.50;99.90;;;;;;4977992;28;20385;-72
2022/11/16 06:42:56;;;;;;;15.90;7.77;;;11.40;99.90;;;;;;4959503;28;20228;-70
2022/11/16 06:45:22;;;;;;;17.30;7.87;;;11.40;99.90;;;;;;4971062;28;20209;-71
2022/11/16 06:47:49;;;;;;;17.30;9.13;;;11.40;99.90;;;;;;4973287;28;20211;-70
2022/11/16 06:50:18;;;;;;;20.60;9.10;;;11.30;99.90;;;;;;4979259;28;20231;-70
2022/11/16 06:52:45;;;;;;;23.23;10.37;;;11.30;99.90;;;;;;4978881;28;20346;-70
2022/11/16 06:55:13;;;;;;;22.67;11.30;;;11.30;99.90;;;;;;4978731;28;20302;-70
2022/11/16 06:57:39;;;;;;;22.50;11.40;;;11.30;99.90;;;;;;4980582;28;20207;-70
2022/11/16 07:00:07;;;;;;;26.87;12.07;;;11.20;99.90;;;;;;4978665;28;20204;-71
2022/11/16 07:02:38;;;;;;;32.00;12.37;;;11.20;99.90;;;;;;4979797;28;20267;-70
2022/11/16 07:05:06;;;;;;;30.70;13.50;;;11.20;99.90;;;;;;4981372;28;20762;-72
2022/11/16 07:07:32;;;;;;;33.57;13.47;;;11.20;99.90;;;;;;4974112;28;20707;-71
2022/11/16 07:10:01;;;;;;;26.93;12.77;;;11.20;99.90;;;;;;4981249;28;20303;-71
2022/11/16 07:12:28;;;;;;;33.43;14.20;;;11.20;99.90;;;;;;4980524;28;20248;-72
2022/11/16 07:14:54;;;;;;;33.27;16.03;;;11.20;99.90;;;;;;4980464;28;20300;-71
2022/11/16 07:17:21;;;;;;;32.83;14.87;;;11.10;99.90;;;;;;4964890;28;20301;-70
2022/11/16 07:19:48;;;;;;;41.47;17.23;;;11.10;99.90;;;;;;4980286;28;20207;-70
2022/11/16 07:22:15;;;;;;;45.03;16.83;;;11.10;99.90;;;;;;4980449;28;20248;-70
2022/11/16 07:24:41;;;;;;;46.10;16.60;;;11.10;99.90;;;;;;4975708;28;20618;-70
2022/11/16 07:27:08;;;;;;;40.77;17.40;;;11.00;99.90;;;;;;4967609;28;20268;-70
2022/11/16 07:29:35;;;;;;;46.77;18.07;;;11.00;99.90;;;;;;4975984;28;20747;-71
2022/11/16 07:32:01;;;;;;;40.80;18.13;;;11.00;99.90;;;;;;4980664;28;20214;-71
2022/11/16 07:34:28;;;;;;;43.67;18.53;;;11.00;99.90;;;;;;4980636;28;20743;-71
2022/11/16 07:36:55;;;;;;;48.67;19.20;;;10.90;99.90;;;;;;4979420;28;20227;-70
2022/11/16 07:39:22;;;;;;;47.80;19.03;;;10.90;99.90;;;;;;4975558;28;20215;-69
2022/11/16 07:41:51;;;;;;;53.37;19.33;;;10.90;99.90;;;;;;4972797;28;20274;-71
2022/11/16 07:44:19;;;;;;;50.40;19.20;;;10.80;99.90;;;;;;4979837;28;20247;-71
2022/11/16 07:46:46;;;;;;;52.93;20.10;;;10.80;99.90;;;;;;4977506;28;20637;-71
2022/11/16 07:49:15;;;;;;;53.97;19.93;;;10.80;99.90;;;;;;4973190;28;20638;-70
2022/11/16 07:51:43;;;;;;;49.17;20.67;;;10.80;99.90;;;;;;4977959;28;20244;-69
2022/11/16 07:54:14;;;;;;;55.00;20.83;;;10.80;99.90;;;;;;4977585;28;20319;-70
2022/11/16 07:56:41;;;;;;;54.53;20.73;;;10.80;99.90;;;;;;4980841;28;20303;-70
2022/11/16 07:59:08;;;;;;;48.33;20.23;;;10.70;99.90;;;;;;4978507;28;20302;-70
2022/11/16 08:01:34;;;;;;;46.00;19.37;;;10.70;99.90;;;;;;4963374;28;20318;-71
2022/11/16 08:04:02;;;;;;;55.93;20.37;;;10.60;99.90;;;;;;4960681;28;20210;-70
2022/11/16 08:06:30;;;;;;;49.87;20.40;;;10.70;99.90;;;;;;4977611;28;20550;-72
2022/11/16 08:08:58;;;;;;;50.87;20.60;;;10.60;99.90;;;;;;4975552;28;20203;-70
2022/11/16 08:11:25;;;;;;;47.03;19.23;;;10.60;99.90;;;;;;4980651;28;20211;-72
2022/11/16 08:13:52;;;;;;;42.33;18.77;;;10.60;99.90;;;;;;4978224;28;20637;-72
2022/11/16 08:16:21;;;;;;;46.50;19.87;;;10.60;99.90;;;;;;4978470;28;20517;-70
2022/11/16 08:18:48;;;;;;;39.77;17.57;;;10.60;99.90;;;;;;4976498;28;20262;-71
2022/11/16 08:21:16;;;;;;;43.73;18.10;;;10.60;99.90;;;;;;4976525;28;21043;-73
2022/11/16 08:23:46;;;;;;;34.53;15.30;;;10.60;99.90;;;;;;4974116;28;20223;-70
2022/11/16 08:26:16;;;;;;;31.83;14.40;;;10.60;99.90;;;;;;4968566;28;20303;-70
2022/11/16 08:28:44;;;;;;;33.30;14.17;;;10.70;99.90;;;;;;4973818;28;20208;-70
2022/11/16 08:31:17;;;;;;;31.67;12.43;;;10.70;99.90;;;;;;4978182;28;20294;-69
2022/11/16 08:33:44;;;;;;;29.93;12.57;;;10.80;99.90;;;;;;4974244;28;20246;-70
2022/11/16 08:36:15;;;;;;;26.07;11.03;;;10.90;99.90;;;;;;4960310;28;20297;-70
2022/11/16 08:38:44;;;;;;;21.00;10.83;;;10.90;99.90;;;;;;4973982;28;20215;-69
2022/11/16 08:41:11;;;;;;;19.97;9.93;;;11.00;99.90;;;;;;4975707;28;20295;-71
2022/11/16 08:43:39;;;;;;;21.00;9.80;;;11.00;99.90;;;;;;4973747;28;20231;-70
2022/11/16 08:46:07;;;;;;;24.67;11.20;;;11.00;99.90;;;;;;4975402;28;20211;-70
2022/11/16 08:48:35;;;;;;;22.07;10.63;;;11.00;99.90;;;;;;4977304;28;20226;-72
2022/11/16 08:51:08;;;;;;;19.93;10.83;;;11.10;99.90;;;;;;4978521;28;20258;-70
2022/11/16 08:53:43;;;;;;;24.93;10.90;;;11.10;99.90;;;;;;4970707;28;20210;-70
2022/11/16 08:56:12;;;;;;;24.37;11.10;;;11.10;99.90;;;;;;4978070;28;20257;-70
2022/11/16 08:58:42;;;;;;;23.87;10.10;;;11.10;99.90;;;;;;4965463;28;20203;-70
2022/11/16 09:01:12;;;;;;;23.83;11.30;;;11.10;99.90;;;;;;4973246;28;20208;-71
2022/11/16 09:03:40;;;;;;;24.57;10.70;;;11.10;99.90;;;;;;4968275;28;20228;-71
2022/11/16 09:06:08;;;;;;;21.43;11.10;;;11.20;99.90;;;;;;4967841;28;20215;-70
2022/11/16 09:08:37;;;;;;;16.57;10.30;;;11.20;99.90;;;;;;4977854;28;20318;-70
2022/11/16 09:11:15;;;;;;;27.57;11.87;;;11.10;99.90;;;;;;4971838;28;20215;-70
2022/11/16 09:13:44;;;;;;;24.00;11.73;;;11.20;99.90;;;;;;4973469;28;20204;-70
2022/11/16 09:16:11;;;;;;;16.97;10.73;;;11.20;99.90;;;;;;4971202;28;20204;-70
2022/11/16 09:18:38;;;;;;;23.77;10.70;;;11.20;99.90;;;;;;4975624;28;20222;-69
2022/11/16 09:21:04;;;;;;;20.53;10.07;;;11.20;99.90;;;;;;4973016;28;20712;-69
2022/11/16 09:23:31;;;;;;;22.50;10.63;;;11.20;99.90;;;;;;4970405;28;20510;-70
2022/11/16 09:26:03;;;;;;;23.73;10.60;;;11.30;99.90;;;;;;4977067;28;20243;-70
2022/11/16 09:28:30;;;;;;;23.87;11.13;;;11.30;99.90;;;;;;4973788;28;20203;-71
2022/11/16 09:31:04;;;;;;;20.07;10.73;;;11.30;99.90;;;;;;4979488;28;20200;-71
2022/11/16 09:33:32;;;;;;;19.70;9.37;;;11.30;99.90;;;;;;4973309;28;20215;-70
2022/11/16 09:36:08;;;;;;;18.83;9.53;;;11.40;99.90;;;;;;4978584;28;20216;-71
2022/11/16 09:38:39;;;;;;;21.53;10.57;;;11.30;99.90;;;;;;4977505;28;20242;-69
2022/11/16 09:42:00;;;;;;;24.50;10.40;;;11.40;99.90;;;;;;4969276;28;20629;-70
2022/11/16 09:44:55;;;;;;;21.93;10.73;;;11.30;99.90;;;;;;4977866;28;20511;-69
2022/11/16 09:47:36;;;;;;;17.67;10.80;;;11.30;99.90;;;;;;4972186;28;20279;-70
2022/11/16 09:50:05;;;;;;;18.30;10.17;;;11.40;99.90;;;;;;4975019;28;20687;-71
2022/11/16 09:52:43;;;;;;;21.20;10.13;;;11.40;99.90;;;;;;4978014;28;20680;-71
2022/11/16 09:55:35;;;;;;;18.90;9.37;;;11.30;99.90;;;;;;4972852;28;20213;-69
2022/11/16 09:58:11;;;;;;;20.40;9.80;;;11.30;99.90;;;;;;4975174;28;20298;-69
2022/11/16 10:00:43;;;;;;;23.87;10.50;;;11.30;99.90;;;;;;4975361;28;20651;-68
2022/11/16 10:03:12;;;;;;;19.13;9.60;;;11.20;99.90;;;;;;4977426;28;20692;-70
2022/11/16 10:06:01;;;;;;;25.20;10.23;;;11.20;99.90;;;;;;4972245;28;20633;-70
2022/11/16 10:08:44;;;;;;;19.17;9.67;;;11.20;99.90;;;;;;4980575;28;20632;-69
2022/11/16 10:11:37;;;;;;;21.60;9.97;;;11.30;99.90;;;;;;4978066;28;20227;-74
2022/11/16 10:14:23;;;;;;;13.90;9.13;;;11.30;99.90;;;;;;4959803;28;20211;-70
2022/11/16 10:16:56;;;;;;;22.43;9.37;;;11.30;99.90;;;;;;4977043;28;20268;-70
2022/11/16 10:19:52;;;;;;;18.97;9.37;;;11.30;99.90;;;;;;4981854;28;20602;-70
2022/11/16 10:22:34;;;;;;;21.73;9.37;;;11.40;99.90;;;;;;4972710;28;20220;-70
2022/11/16 10:25:10;;;;;;;17.63;8.43;;;11.40;99.90;;;;;;4978208;28;20211;-70
2022/11/16 10:27:58;;;;;;;13.50;7.80;;;11.50;99.90;;;;;;4981411;28;20298;-70
2022/11/16 10:30:25;;;;;;;20.27;7.50;;;11.50;99.90;;;;;;4976474;28;20196;-70
2022/11/16 10:32:53;;;;;;;20.17;8.90;;;11.60;99.90;;;;;;4980220;28;20723;-69
2022/11/16 10:35:32;;;;;;;14.53;5.63;;;11.60;99.90;;;;;;4976441;28;20389;-71
2022/11/16 10:38:02;;;;;;;14.73;6.40;;;11.60;99.90;;;;;;4971418;28;20214;-69
2022/11/16 10:40:36;;;;;;;13.17;6.33;;;11.70;99.90;;;;;;4976955;28;20763;-69
2022/11/16 10:43:09;;;;;;;16.40;5.90;;;11.80;99.90;;;;;;4960355;28;20223;-71
2022/11/16 10:45:42;;;;;;;10.97;5.23;;;11.70;99.90;;;;;;4977078;28;20211;-70
2022/11/16 10:48:30;;;;;;;14.30;4.67;;;11.80;99.90;;;;;;4975863;28;20208;-70
2022/11/16 10:50:57;;;;;;;9.13;4.30;;;11.90;99.90;;;;;;4979363;28;20282;-70
2022/11/16 10:53:26;;;;;;;13.93;5.00;;;11.80;99.90;;;;;;4973237;28;20583;-70
2022/11/16 10:56:11;;;;;;;12.53;4.87;;;11.80;99.90;;;;;;4978060;28;20309;-69
2022/11/16 10:58:57;;;;;;;13.07;5.40;;;11.80;99.90;;;;;;4960236;28;20211;-70
2022/11/16 11:01:35;;;;;;;12.73;5.07;;;11.70;99.90;;;;;;4975526;28;20212;-70
2022/11/16 11:04:21;;;;;;;14.43;5.00;;;11.70;99.90;;;;;;4973026;28;20263;-69
2022/11/16 11:06:51;;;;;;;13.27;4.73;;;11.70;99.90;;;;;;4978092;28;20231;-69
2022/11/16 11:09:31;;;;;;;25.47;6.47;;;11.70;99.90;;;;;;4979314;28;20257;-69
2022/11/16 11:15:26;;;;;;;12.77;4.27;;;11.70;99.90;;;;;;4977082;28;20508;-70
2022/11/16 11:18:15;;;;;;;13.93;4.07;;;11.70;99.90;;;;;;4975623;28;20634;-69
2022/11/16 11:20:49;;;;;;;7.57;3.73;;;11.80;99.90;;;;;;4975031;28;20699;-70
2022/11/16 11:23:23;;;;;;;8.83;3.93;;;11.80;99.90;;;;;;4968977;28;20306;-70
2022/11/16 11:25:52;;;;;;;11.90;3.60;;;11.80;99.90;;;;;;4973904;28;20207;-70
2022/11/16 11:28:37;;;;;;;10.00;3.43;;;11.80;99.90;;;;;;4980756;28;20210;-70
2022/11/16 11:31:10;;;;;;;11.43;3.20;;;11.90;99.90;;;;;;4980251;28;20219;-70
2022/11/16 11:33:42;;;;;;;11.60;3.70;;;11.90;99.90;;;;;;4973162;28;20674;-70
2022/11/16 11:36:18;;;;;;;8.03;2.73;;;12.00;99.90;;;;;;4973918;28;20220;-69
2022/11/16 11:38:58;;;;;;;12.73;3.73;;;12.00;99.90;;;;;;4974444;28;20199;-70
2022/11/16 11:41:32;;;;;;;10.47;3.33;;;12.00;99.90;;;;;;4974632;28;20208;-70
2022/11/16 11:44:02;;;;;;;7.03;2.83;;;12.00;99.90;;;;;;4977631;28;20258;-69
2022/11/16 11:46:35;;;;;;;8.27;2.83;;;12.00;99.90;;;;;;4980282;28;20223;-70
2022/11/16 11:49:35;;;;;;;8.97;3.00;;;12.00;99.90;;;;;;4971792;28;20223;-69
2022/11/16 11:52:16;;;;;;;12.37;4.13;;;12.00;99.90;;;;;;4977645;28;20321;-69
2022/11/16 11:54:48;;;;;;;11.93;3.40;;;12.10;99.90;;;;;;4979063;28;20334;-69
2022/11/16 11:57:21;;;;;;;10.77;4.70;;;12.10;99.90;;;;;;4976237;28;20687;-70
2022/11/16 11:59:51;;;;;;;8.93;3.00;;;12.10;99.90;;;;;;4976548;28;20517;-70
2022/11/16 12:02:47;;;;;;;12.10;3.13;;;12.20;99.90;;;;;;4978448;28;20278;-69
2022/11/16 12:05:20;;;;;;;10.77;3.47;;;12.20;99.90;;;;;;4980583;28;20203;-69
2022/11/16 12:08:06;;;;;;;9.93;3.70;;;12.30;99.90;;;;;;4978060;28;20223;-69
2022/11/16 12:10:49;;;;;;;10.80;3.90;;;12.30;99.90;;;;;;4976310;28;20286;-70
2022/11/16 12:13:49;;;;;;;8.43;3.37;;;12.40;99.90;;;;;;4975005;28;20655;-70
2022/11/16 12:16:48;;;;;;;10.47;3.97;;;12.40;99.90;;;;;;4979015;28;20218;-70
2022/11/16 12:19:36;;;;;;;11.47;3.40;;;12.30;99.90;;;;;;4975411;28;20203;-70
2022/11/16 12:22:21;;;;;;;11.80;3.57;;;12.30;99.90;;;;;;4975077;28;20664;-71
2022/11/16 12:24:51;;;;;;;10.50;4.17;;;12.30;99.90;;;;;;4976089;28;20199;-70
2022/11/16 12:27:33;;;;;;;11.27;3.53;;;12.30;99.90;;;;;;4973747;28;20220;-69
2022/11/16 12:30:10;;;;;;;10.23;3.90;;;12.30;99.90;;;;;;4974939;28;20719;-70
2022/11/16 12:32:58;;;;;;;9.73;3.67;;;12.30;99.90;;;;;;4975287;28;20541;-70
2022/11/16 12:35:40;;;;;;;7.83;3.50;;;12.20;99.90;;;;;;4970599;28;20214;-69
2022/11/16 12:38:13;;;;;;;8.13;3.63;;;12.20;99.90;;;;;;4970188;28;20310;-70
2022/11/16 12:41:13;;;;;;;5.90;3.33;;;12.20;99.90;;;;;;4976973;28;20271;-70
2022/11/16 12:43:58;;;;;;;7.50;3.43;;;12.20;99.90;;;;;;4977287;28;20643;-70
2022/11/16 12:46:55;;;;;;;9.23;3.73;;;12.10;99.90;;;;;;4978160;28;20928;-70
2022/11/16 12:49:44;;;;;;;8.77;3.40;;;12.10;99.90;;;;;;4975190;28;20216;-71
2022/11/16 12:52:50;;;;;;;10.50;3.67;;;12.10;99.90;;;;;;4977021;28;20661;-70
2022/11/16 12:55:24;;;;;;;6.20;2.80;;;12.10;99.90;;;;;;4953330;28;20719;-70
2022/11/16 12:57:59;;;;;;;6.87;2.73;;;12.10;99.90;;;;;;4976686;28;20207;-73
2022/11/16 13:00:30;;;;;;;7.67;2.90;;;12.00;99.90;;;;;;4977629;28;20467;-71
2022/11/16 13:03:32;;;;;;;7.20;2.90;;;12.00;99.90;;;;;;4973177;28;20566;-72
2022/11/16 13:06:04;;;;;;;6.93;2.80;;;12.00;99.90;;;;;;4978505;28;20292;-69
2022/11/16 13:08:52;;;;;;;7.87;3.10;;;12.00;99.90;;;;;;4978198;28;20234;-71
2022/11/16 13:11:26;;;;;;;6.97;2.77;;;12.00;99.90;;;;;;4968014;28;20677;-69
2022/11/16 13:14:01;;;;;;;8.80;3.33;;;12.10;99.90;;;;;;4978598;28;20646;-70
2022/11/16 13:16:28;;;;;;;8.83;2.63;;;12.20;99.90;;;;;;4967721;28;20214;-71
2022/11/16 13:18:56;;;;;;;12.43;2.53;;;12.20;99.90;;;;;;4978397;28;20234;-70
2022/11/16 13:21:29;;;;;;;8.17;2.60;;;12.30;99.90;;;;;;4978877;28;20293;-70
2022/11/16 13:24:16;;;;;;;9.37;3.00;;;12.30;99.90;;;;;;4977918;28;20819;-70
2022/11/16 13:27:15;;;;;;;14.43;3.13;;;12.40;99.90;;;;;;4975706;28;20239;-71
2022/11/16 13:30:11;;;;;;;11.20;3.07;;;12.50;99.90;;;;;;4972732;28;20313;-70
2022/11/16 13:32:59;;;;;;;10.17;3.30;;;12.50;99.90;;;;;;4976413;28;20247;-71
2022/11/16 13:35:26;;;;;;;5.30;2.20;;;12.50;99.90;;;;;;4976655;28;20234;-71
2022/11/16 13:37:53;;;;;;;6.20;2.87;;;12.50;99.90;;;;;;4963439;28;20602;-72
2022/11/16 13:40:26;;;;;;;6.37;2.20;;;12.50;99.90;;;;;;4996093;28;20227;-70
2022/11/16 13:43:08;;;;;;;6.73;3.20;;;12.40;99.90;;;;;;4973718;28;20294;-70
2022/11/16 13:45:47;;;;;;;7.30;2.93;;;12.30;99.90;;;;;;4961669;28;20687;-71
2022/11/16 13:48:29;;;;;;;7.97;2.60;;;12.30;99.90;;;;;;4962728;28;20617;-70
2022/11/16 13:50:59;;;;;;;10.20;2.83;;;12.30;99.90;;;;;;4981299;28;20657;-71